createdAt,value
2019-05-03T00:01:48.251Z,13.31
2019-05-03T00:04:19.088Z,13.35
2019-05-03T00:06:52.021Z,13.34
2019-05-03T00:09:22.675Z,13.17
2019-05-03T00:11:53.429Z,13.19
2019-05-03T00:14:24.106Z,13.23
2019-05-03T00:16:55.000Z,13.17
2019-05-03T00:19:25.764Z,13.08
2019-05-03T00:21:56.463Z,12.98
2019-05-03T00:24:27.251Z,13.06
2019-05-03T00:26:57.929Z,13.05
2019-05-03T00:29:28.665Z,13.00
2019-05-03T00:31:59.398Z,12.85
2019-05-03T00:34:35.298Z,13.15
2019-05-03T00:37:09.340Z,13.05
2019-05-03T00:39:52.392Z,12.84
2019-05-03T00:42:23.119Z,12.85
2019-05-03T00:44:53.819Z,12.80
2019-05-03T00:47:24.504Z,12.80
2019-05-03T00:49:55.603Z,12.76
2019-05-03T00:52:26.359Z,12.62
2019-05-03T00:54:57.235Z,12.66
2019-05-03T00:57:32.110Z,12.72
2019-05-03T01:00:03.121Z,12.64
2019-05-03T01:02:35.034Z,12.61
2019-05-03T01:05:06.104Z,12.67
2019-05-03T01:07:37.063Z,12.57
2019-05-03T01:10:09.129Z,12.54
2019-05-03T01:12:41.630Z,12.43
2019-05-03T01:15:21.560Z,12.44
2019-05-03T01:17:52.578Z,12.38
2019-05-03T01:20:23.274Z,12.45
2019-05-03T01:22:53.915Z,12.46
2019-05-03T01:25:32.393Z,12.46
2019-05-03T01:27:56.911Z,12.29
2019-05-03T01:30:27.506Z,12.36
2019-05-03T01:32:58.566Z,12.43
2019-05-03T01:35:29.326Z,12.35
2019-05-03T01:38:02.049Z,12.42
2019-05-03T01:40:32.757Z,12.41
2019-05-03T01:43:03.575Z,12.40
2019-05-03T01:45:34.264Z,12.38
2019-05-03T01:48:21.705Z,12.40
2019-05-03T01:51:14.102Z,12.37
2019-05-03T01:53:44.973Z,12.33
2019-05-03T01:56:15.742Z,12.29
2019-05-03T01:58:46.349Z,12.19
2019-05-03T02:01:32.575Z,12.05
2019-05-03T02:04:24.933Z,12.12
2019-05-03T02:06:55.885Z,12.24
2019-05-03T02:09:26.629Z,12.35
2019-05-03T02:11:57.320Z,12.35
2019-05-03T02:14:28.002Z,12.31
2019-05-03T02:16:58.681Z,12.32
2019-05-03T02:19:29.438Z,12.25
2019-05-03T02:22:00.218Z,12.23
2019-05-03T02:24:32.762Z,12.13
2019-05-03T02:27:03.768Z,12.18
2019-05-03T02:29:34.518Z,12.21
2019-05-03T02:32:05.243Z,12.23
2019-05-03T02:34:35.968Z,12.19
2019-05-03T02:37:06.741Z,12.39
2019-05-03T02:39:37.521Z,12.17
2019-05-03T02:42:11.736Z,12.15
2019-05-03T02:44:41.296Z,12.12
2019-05-03T02:47:29.627Z,12.09
2019-05-03T02:50:05.814Z,11.99
2019-05-03T02:52:37.717Z,12.02
2019-05-03T02:55:11.526Z,12.01
2019-05-03T02:57:42.472Z,12.08
2019-05-03T03:00:16.339Z,12.02
2019-05-03T03:02:47.910Z,11.97
2019-05-03T03:05:18.667Z,12.06
2019-05-03T03:07:52.105Z,11.96
2019-05-03T03:10:22.805Z,11.94
2019-05-03T03:12:55.588Z,11.93
2019-05-03T03:15:28.743Z,11.83
2019-05-03T03:18:01.517Z,11.85
2019-05-03T03:20:35.723Z,12.00
2019-05-03T03:23:09.270Z,11.91
2019-05-03T03:25:42.946Z,11.92
2019-05-03T03:28:17.617Z,11.86
2019-05-03T03:31:28.177Z,11.87
2019-05-03T03:33:59.973Z,11.92
2019-05-03T03:36:53.281Z,11.95
2019-05-03T03:39:06.048Z,11.95
2019-05-03T03:41:37.207Z,11.68
2019-05-03T03:44:08.322Z,11.69
2019-05-03T03:46:40.698Z,11.72
2019-05-03T03:49:15.522Z,11.73
2019-05-03T03:51:49.498Z,11.67
2019-05-03T03:54:21.138Z,11.58
2019-05-03T03:57:03.335Z,11.78
2019-05-03T03:59:27.885Z,11.66
2019-05-03T04:01:58.680Z,11.41
2019-05-03T04:04:29.748Z,11.47
2019-05-03T04:07:01.518Z,11.63
2019-05-03T04:09:32.682Z,11.72
2019-05-03T04:12:06.043Z,11.69
2019-05-03T04:15:05.663Z,11.72
2019-05-03T04:17:58.272Z,11.47
2019-05-03T04:20:35.826Z,11.53
2019-05-03T04:23:07.129Z,11.49
2019-05-03T04:25:38.129Z,11.45
2019-05-03T04:28:09.751Z,11.51
2019-05-03T04:30:40.552Z,11.60
2019-05-03T04:33:11.344Z,11.59
2019-05-03T04:35:42.129Z,11.65
2019-05-03T04:38:16.026Z,11.66
2019-05-03T04:40:45.612Z,11.78
2019-05-03T04:43:16.750Z,11.67
2019-05-03T04:46:06.246Z,11.70
2019-05-03T04:48:36.707Z,11.74
2019-05-03T04:51:07.514Z,11.67
2019-05-03T04:53:40.707Z,11.69
2019-05-03T04:56:11.691Z,11.63
2019-05-03T04:58:45.677Z,11.68
2019-05-03T05:01:15.864Z,11.64
2019-05-03T05:03:46.821Z,11.68
2019-05-03T05:06:17.581Z,11.64
2019-05-03T05:08:48.536Z,11.69
2019-05-03T05:11:19.197Z,11.69
2019-05-03T05:13:50.001Z,11.57
2019-05-03T05:16:20.796Z,11.56
2019-05-03T05:18:56.054Z,11.56
2019-05-03T05:21:44.693Z,11.62
2019-05-03T05:24:15.258Z,11.69
2019-05-03T05:26:55.021Z,11.71
2019-05-03T05:29:28.026Z,11.76
2019-05-03T05:31:59.064Z,11.76
2019-05-03T05:34:29.986Z,11.76
2019-05-03T05:37:00.662Z,11.76
2019-05-03T05:39:31.263Z,11.67
2019-05-03T05:42:01.929Z,11.80
2019-05-03T05:44:32.721Z,11.58
2019-05-03T05:47:09.957Z,11.59
2019-05-03T05:49:59.646Z,11.79
2019-05-03T05:52:30.493Z,11.74
2019-05-03T05:55:25.146Z,11.84
2019-05-03T05:58:07.527Z,11.85
2019-05-03T06:00:44.871Z,11.80
2019-05-03T06:03:15.447Z,11.87
2019-05-03T06:05:46.358Z,11.95
2019-05-03T06:08:38.770Z,11.92
2019-05-03T06:11:20.823Z,11.71
2019-05-03T06:13:58.599Z,11.84
2019-05-03T06:16:38.226Z,11.86
2019-05-03T06:19:16.003Z,11.76
2019-05-03T06:22:05.614Z,11.82
2019-05-03T06:24:45.245Z,11.91
2019-05-03T06:27:30.292Z,11.92
2019-05-03T06:30:06.944Z,11.94
2019-05-03T06:32:39.542Z,11.89
2019-05-03T06:35:10.595Z,12.05
2019-05-03T06:37:45.849Z,11.90
2019-05-03T06:40:18.003Z,12.01
2019-05-03T06:42:54.553Z,11.81
2019-05-03T06:45:21.618Z,11.81
2019-05-03T06:47:52.443Z,11.92
2019-05-03T06:50:25.200Z,11.76
2019-05-03T06:52:59.905Z,11.64
2019-05-03T06:55:28.897Z,11.66
2019-05-03T06:57:59.576Z,11.86
2019-05-03T07:00:49.103Z,11.94
2019-05-03T07:03:39.971Z,12.07
2019-05-03T07:06:33.579Z,12.17
2019-05-03T07:09:05.362Z,11.98
2019-05-03T07:11:36.430Z,12.05
2019-05-03T07:14:07.199Z,12.11
2019-05-03T07:16:37.995Z,12.18
2019-05-03T07:19:08.677Z,12.22
2019-05-03T07:21:39.357Z,12.20
2019-05-03T07:24:10.099Z,11.96
2019-05-03T07:26:40.932Z,12.13
2019-05-03T07:29:11.667Z,12.04
2019-05-03T07:31:44.550Z,11.66
2019-05-03T07:34:15.603Z,11.76
2019-05-03T07:36:46.780Z,11.74
2019-05-03T07:39:17.773Z,11.56
2019-05-03T07:41:48.521Z,11.82
2019-05-03T07:44:19.305Z,11.80
2019-05-03T07:46:50.031Z,11.95
2019-05-03T07:49:20.722Z,12.08
2019-05-03T07:51:51.567Z,12.23
2019-05-03T07:54:22.285Z,12.40
2019-05-03T07:56:58.372Z,12.42
2019-05-03T07:59:29.074Z,12.58
2019-05-03T08:01:59.749Z,12.57
2019-05-03T08:04:30.420Z,12.59
2019-05-03T08:07:01.108Z,12.51
2019-05-03T08:09:31.814Z,12.63
2019-05-03T08:12:04.912Z,12.54
2019-05-03T08:14:35.719Z,12.72
2019-05-03T08:17:06.562Z,12.31
2019-05-03T08:19:37.315Z,12.33
2019-05-03T08:22:08.146Z,12.54
2019-05-03T08:24:39.061Z,12.58
2019-05-03T08:27:09.703Z,12.60
2019-05-03T08:29:41.520Z,12.64
2019-05-03T08:32:44.546Z,12.78
2019-05-03T08:35:32.922Z,12.83
2019-05-03T08:38:04.945Z,12.63
2019-05-03T08:40:41.496Z,12.64
2019-05-03T08:43:12.234Z,12.65
2019-05-03T08:45:44.747Z,12.86
2019-05-03T08:48:15.697Z,12.70
2019-05-03T08:50:46.551Z,12.85
2019-05-03T08:53:17.363Z,12.91
2019-05-03T08:55:48.033Z,12.92
2019-05-03T08:58:18.982Z,13.02
2019-05-03T09:00:50.131Z,13.06
2019-05-03T09:03:20.706Z,12.88
2019-05-03T09:05:51.966Z,12.76
2019-05-03T09:08:24.814Z,12.85
2019-05-03T09:10:59.139Z,12.93
2019-05-03T09:13:46.511Z,12.99
2019-05-03T09:16:18.449Z,13.00
2019-05-03T09:18:49.702Z,12.97
2019-05-03T09:21:20.414Z,13.05
2019-05-03T09:23:51.210Z,13.00
2019-05-03T09:26:21.986Z,13.13
2019-05-03T09:28:52.659Z,13.25
2019-05-03T09:31:24.666Z,13.28
2019-05-03T09:33:56.474Z,12.99
2019-05-03T09:36:27.318Z,13.14
2019-05-03T09:38:58.109Z,13.38
2019-05-03T09:41:29.063Z,13.53
2019-05-03T09:44:00.506Z,13.72
2019-05-03T09:46:31.473Z,13.80
2019-05-03T09:49:12.607Z,13.79
2019-05-03T09:51:35.096Z,13.77
2019-05-03T09:54:14.719Z,13.78
2019-05-03T09:56:58.689Z,13.84
2019-05-03T09:59:31.974Z,13.80
2019-05-03T10:02:04.777Z,13.83
2019-05-03T10:04:36.937Z,13.67
2019-05-03T10:07:07.686Z,13.61
2019-05-03T10:09:38.455Z,13.62
2019-05-03T10:12:13.356Z,13.73
2019-05-03T10:14:45.243Z,13.82
2019-05-03T10:17:51.159Z,13.94
2019-05-03T10:20:25.188Z,13.93
2019-05-03T10:22:59.384Z,13.96
2019-05-03T10:25:30.035Z,13.98
2019-05-03T10:28:00.915Z,14.10
2019-05-03T10:30:31.702Z,14.24
2019-05-03T10:33:15.855Z,14.21
2019-05-03T10:35:47.659Z,13.95
2019-05-03T10:38:18.690Z,14.17
2019-05-03T10:40:49.392Z,14.27
2019-05-03T10:43:20.126Z,14.37
2019-05-03T10:45:51.249Z,14.30
2019-05-03T10:48:22.256Z,14.43
2019-05-03T10:50:53.495Z,14.69
2019-05-03T10:53:28.746Z,14.61
2019-05-03T10:56:23.393Z,14.52
2019-05-03T10:58:58.087Z,14.71
2019-05-03T11:01:50.435Z,14.99
2019-05-03T11:04:21.265Z,15.01
2019-05-03T11:06:52.158Z,13.96
2019-05-03T11:09:22.926Z,14.41
2019-05-03T11:11:55.535Z,14.70
2019-05-03T11:14:26.650Z,15.04
2019-05-03T11:17:00.652Z,15.28
2019-05-03T11:19:31.887Z,15.04
2019-05-03T11:22:02.813Z,15.40
2019-05-03T11:24:34.832Z,15.67
2019-05-03T11:27:12.177Z,15.83
2019-05-03T11:29:45.078Z,15.74
2019-05-03T11:32:31.506Z,15.92
2019-05-03T11:35:11.556Z,15.78
2019-05-03T11:37:48.242Z,15.94
2019-05-03T11:40:19.518Z,15.98
2019-05-03T11:42:51.291Z,16.11
2019-05-03T11:45:22.130Z,15.87
2019-05-03T11:47:54.953Z,16.24
2019-05-03T11:50:25.713Z,15.78
2019-05-03T11:52:56.470Z,15.97
2019-05-03T11:55:27.140Z,16.00
2019-05-03T11:57:57.840Z,15.99
2019-05-03T12:00:35.515Z,16.00
2019-05-03T12:03:15.573Z,16.09
2019-05-03T12:05:49.998Z,16.37
2019-05-03T12:08:20.645Z,15.98
2019-05-03T12:10:57.965Z,16.34
2019-05-03T12:13:33.166Z,16.58
2019-05-03T12:16:14.432Z,16.90
2019-05-03T12:18:49.311Z,16.91
2019-05-03T12:21:10.753Z,16.72
2019-05-03T12:23:42.684Z,17.17
2019-05-03T12:26:17.120Z,17.54
2019-05-03T12:28:46.747Z,17.59
2019-05-03T12:31:28.241Z,17.66
2019-05-03T12:33:50.030Z,17.42
2019-05-03T12:36:20.758Z,17.51
2019-05-03T12:38:51.557Z,17.27
2019-05-03T12:41:22.226Z,17.32
2019-05-03T12:43:55.032Z,17.17
2019-05-03T12:46:26.202Z,17.29
2019-05-03T12:48:57.257Z,17.30
2019-05-03T12:51:28.162Z,17.31
2019-05-03T12:53:59.009Z,17.01
2019-05-03T12:56:32.662Z,16.33
2019-05-03T12:59:07.485Z,16.90
2019-05-03T13:01:57.463Z,17.17
2019-05-03T13:04:31.323Z,17.33
2019-05-03T13:07:11.219Z,17.42
2019-05-03T13:09:42.118Z,17.37
2019-05-03T13:12:14.795Z,17.44
2019-05-03T13:14:45.635Z,17.36
2019-05-03T13:17:18.838Z,17.37
2019-05-03T13:19:49.555Z,17.61
2019-05-03T13:22:20.179Z,17.53
2019-05-03T13:24:50.762Z,17.61
2019-05-03T13:27:21.461Z,17.92
2019-05-03T13:29:52.178Z,17.49
2019-05-03T13:32:22.858Z,17.64
2019-05-03T13:34:55.259Z,18.02
2019-05-03T13:37:25.916Z,17.97
2019-05-03T13:39:56.639Z,18.12
2019-05-03T13:42:27.282Z,18.06
2019-05-03T13:44:57.846Z,17.96
2019-05-03T13:47:28.480Z,17.42
2019-05-03T13:49:59.318Z,17.16
2019-05-03T13:52:30.311Z,17.92
2019-05-03T13:55:01.583Z,18.78
2019-05-03T13:57:35.239Z,18.96
2019-05-03T14:00:26.670Z,18.84
2019-05-03T14:02:57.356Z,18.50
2019-05-03T14:05:28.021Z,17.98
2019-05-03T14:07:58.829Z,17.79
2019-05-03T14:10:30.730Z,18.03
2019-05-03T14:13:01.623Z,17.54
2019-05-03T14:15:34.623Z,17.39
2019-05-03T14:18:06.205Z,17.43
2019-05-03T14:21:01.967Z,18.12
2019-05-03T14:23:37.158Z,18.52
2019-05-03T14:26:08.055Z,19.15
2019-05-03T14:28:38.758Z,19.48
2019-05-03T14:31:09.406Z,19.51
2019-05-03T14:33:40.056Z,19.93
2019-05-03T14:36:10.834Z,19.57
2019-05-03T14:38:41.691Z,20.22
2019-05-03T14:41:14.940Z,20.84
2019-05-03T14:43:45.104Z,21.31
2019-05-03T14:46:29.317Z,21.41
2019-05-03T14:48:48.458Z,21.47
2019-05-03T14:51:19.334Z,20.63
2019-05-03T14:53:50.236Z,20.31
2019-05-03T14:56:27.151Z,19.95
2019-05-03T14:59:29.007Z,19.92
2019-05-03T15:02:06.130Z,19.85
2019-05-03T15:04:36.790Z,19.45
2019-05-03T15:07:07.858Z,19.14
2019-05-03T15:09:38.864Z,19.34
2019-05-03T15:12:09.642Z,18.87
2019-05-03T15:14:40.350Z,19.20
2019-05-03T15:17:10.936Z,19.51
2019-05-03T15:19:41.776Z,19.25
2019-05-03T15:22:15.088Z,18.75
2019-05-03T15:24:45.702Z,18.92
2019-05-03T15:27:18.752Z,19.15
2019-05-03T15:29:50.063Z,19.63
2019-05-03T15:32:20.942Z,19.97
2019-05-03T15:34:51.637Z,20.18
2019-05-03T15:37:22.466Z,20.54
2019-05-03T15:39:54.644Z,20.15
2019-05-03T15:42:26.586Z,19.76
2019-05-03T15:45:14.889Z,19.39
2019-05-03T15:48:15.144Z,19.45
2019-05-03T15:50:45.908Z,18.93
2019-05-03T15:53:16.580Z,18.99
2019-05-03T16:04:04.820Z,18.19
2019-05-03T16:06:35.605Z,18.24
2019-05-03T16:09:07.877Z,18.33
2019-05-03T16:11:39.412Z,18.32
2019-05-03T16:14:10.115Z,18.28
2019-05-03T16:16:40.878Z,17.69
2019-05-03T16:19:11.703Z,17.72
2019-05-03T16:21:42.445Z,17.74
2019-05-03T16:24:13.167Z,17.75
2019-05-03T16:27:01.646Z,17.83
2019-05-03T16:29:33.277Z,17.94
2019-05-03T16:32:05.211Z,17.93
2019-05-03T16:34:36.076Z,17.74
2019-05-03T16:37:06.954Z,17.52
2019-05-03T16:39:37.648Z,17.58
2019-05-03T16:42:09.923Z,17.62
2019-05-03T16:44:40.674Z,17.64
2019-05-03T16:47:11.478Z,17.58
2019-05-03T16:49:42.083Z,17.35
2019-05-03T16:52:14.695Z,17.09
2019-05-03T16:54:45.433Z,16.72
2019-05-03T16:57:17.583Z,16.62
2019-05-03T16:59:48.848Z,16.54
2019-05-03T17:02:19.579Z,16.57
2019-05-03T17:04:56.355Z,16.65
2019-05-03T17:07:32.623Z,16.57
2019-05-03T17:10:15.303Z,16.46
2019-05-03T17:12:46.264Z,16.32
2019-05-03T17:15:17.467Z,16.32
2019-05-03T17:17:48.275Z,16.41
2019-05-03T17:20:19.089Z,16.44
2019-05-03T17:22:49.849Z,16.39
2019-05-03T17:25:20.646Z,16.09
2019-05-03T17:27:51.318Z,15.27
2019-05-03T17:30:22.281Z,14.97
2019-05-03T17:32:55.005Z,14.70
2019-05-03T17:35:25.604Z,14.65
2019-05-03T17:37:56.383Z,14.36
2019-05-03T17:40:45.545Z,14.13
2019-05-03T17:43:29.713Z,13.96
2019-05-03T17:46:00.754Z,13.51
2019-05-03T17:48:31.822Z,13.76
2019-05-03T17:51:04.439Z,13.78
2019-05-03T17:53:54.816Z,13.58
2019-05-03T17:56:35.063Z,13.50
2019-05-03T17:59:15.191Z,13.52
2019-05-03T18:02:23.739Z,13.41
2019-05-03T18:05:16.751Z,13.34
2019-05-03T18:08:09.119Z,13.45
2019-05-03T18:10:41.332Z,13.63
2019-05-03T18:13:12.065Z,13.63
2019-05-03T18:15:44.839Z,13.79
2019-05-03T18:18:15.747Z,13.68
2019-05-03T18:20:46.654Z,13.49
2019-05-03T18:23:17.325Z,13.72
2019-05-03T18:25:48.278Z,13.89
2019-05-03T18:28:19.031Z,14.00
2019-05-03T18:30:49.766Z,13.96
2019-05-03T18:33:20.714Z,13.89
2019-05-03T18:35:51.438Z,13.82
2019-05-03T18:38:25.220Z,13.75
2019-05-03T18:40:56.048Z,13.59
2019-05-03T18:43:41.558Z,13.48
2019-05-03T18:46:25.058Z,13.44
2019-05-03T18:48:55.761Z,13.40
2019-05-03T18:51:26.524Z,13.35
2019-05-03T18:53:57.667Z,13.29
2019-05-03T18:56:29.430Z,13.19
2019-05-03T18:59:00.173Z,13.13
2019-05-03T19:01:30.895Z,13.18
2019-05-03T19:04:16.658Z,13.10
2019-05-03T19:06:47.452Z,13.13
2019-05-03T19:09:49.285Z,13.18
2019-05-03T19:12:38.872Z,13.09
2019-05-03T19:15:10.606Z,12.96
2019-05-03T19:17:58.694Z,12.91
2019-05-03T19:20:29.422Z,12.95
2019-05-03T19:23:00.355Z,12.92
2019-05-03T19:25:43.338Z,12.93
2019-05-03T19:28:06.022Z,12.95
2019-05-03T19:30:37.859Z,12.82
2019-05-03T19:33:08.448Z,12.87
2019-05-03T19:35:39.281Z,12.98
2019-05-03T19:38:10.090Z,12.97
2019-05-03T19:40:40.864Z,12.83
2019-05-03T19:43:11.657Z,12.90
2019-05-03T19:45:42.388Z,12.91
2019-05-03T19:48:14.721Z,12.84
2019-05-03T19:50:45.302Z,12.80
2019-05-03T19:53:23.714Z,12.75
2019-05-03T19:55:55.319Z,12.72
2019-05-03T19:58:25.991Z,12.61
2019-05-03T20:01:11.106Z,12.59
2019-05-03T20:03:48.630Z,12.58
2019-05-03T20:06:45.093Z,12.59
2019-05-03T20:09:17.452Z,12.61
2019-05-03T20:11:48.097Z,12.64
2019-05-03T20:14:18.764Z,12.62
2019-05-03T20:16:49.567Z,12.52
2019-05-03T20:19:21.283Z,12.52
2019-05-03T20:21:54.261Z,12.48
2019-05-03T20:24:25.319Z,12.61
2019-05-03T20:26:56.185Z,12.46
2019-05-03T20:29:26.751Z,12.47
2019-05-03T20:31:57.695Z,12.49
2019-05-03T20:34:28.296Z,12.45
2019-05-03T20:36:59.152Z,12.41
2019-05-03T20:39:29.927Z,12.33
2019-05-03T20:42:00.756Z,12.28
2019-05-03T20:45:06.507Z,12.27
2019-05-03T20:47:41.686Z,12.28
2019-05-03T20:50:17.422Z,12.20
2019-05-03T20:52:48.310Z,12.29
2019-05-03T20:55:19.148Z,12.24
2019-05-03T20:57:49.991Z,12.09
2019-05-03T21:00:22.988Z,11.94
2019-05-03T21:02:56.940Z,12.06
2019-05-03T21:05:30.995Z,12.12
2019-05-03T21:07:58.416Z,11.98
2019-05-03T21:10:29.078Z,11.98
2019-05-03T21:12:59.779Z,11.97
2019-05-03T21:15:40.091Z,11.93
2019-05-03T21:18:34.378Z,11.89
2019-05-03T21:21:16.114Z,11.80
2019-05-03T21:23:50.543Z,11.83
2019-05-03T21:26:21.312Z,11.91
2019-05-03T21:28:51.997Z,11.86
2019-05-03T21:31:24.509Z,11.84
2019-05-03T21:33:55.481Z,11.72
2019-05-03T21:36:26.237Z,11.61
2019-05-03T21:38:56.846Z,11.64
2019-05-03T21:41:27.515Z,11.62
2019-05-03T21:43:58.139Z,11.64
2019-05-03T21:46:35.330Z,11.65
2019-05-03T21:49:25.365Z,11.67
2019-05-03T21:51:56.022Z,11.68
2019-05-03T21:54:26.906Z,11.65
2019-05-03T21:56:58.022Z,11.62
2019-05-03T21:59:28.797Z,11.62
2019-05-03T22:01:59.741Z,11.42
2019-05-03T22:04:30.537Z,11.43
2019-05-03T22:07:02.230Z,11.44
2019-05-03T22:09:34.838Z,11.46
2019-05-03T22:12:05.621Z,11.45
2019-05-03T22:14:42.153Z,11.38
2019-05-03T22:17:30.642Z,11.17
2019-05-03T22:20:13.149Z,10.98
2019-05-03T22:22:55.300Z,10.93
2019-05-03T22:25:28.813Z,10.98
2019-05-03T22:27:59.630Z,11.00
2019-05-03T22:30:30.374Z,10.93
2019-05-03T22:33:01.175Z,10.90
2019-05-03T22:35:32.014Z,10.97
2019-05-03T22:38:04.540Z,10.95
2019-05-03T22:40:35.460Z,10.86
2019-05-03T22:43:07.215Z,10.81
2019-05-03T22:45:38.267Z,10.80
2019-05-03T22:48:09.028Z,10.80
2019-05-03T22:50:39.797Z,10.87
2019-05-03T22:53:10.742Z,10.95
2019-05-03T22:55:41.433Z,10.93
2019-05-03T22:58:12.099Z,10.86
2019-05-03T23:00:44.492Z,10.84
2019-05-03T23:03:16.911Z,10.93
2019-05-03T23:05:47.608Z,10.97
2019-05-03T23:08:18.498Z,10.89
2019-05-03T23:10:49.178Z,10.85
2019-05-03T23:13:19.856Z,10.84
2019-05-03T23:15:50.543Z,10.81
2019-05-03T23:18:21.345Z,10.73
2019-05-03T23:20:58.615Z,10.57
2019-05-03T23:23:47.293Z,10.56
2019-05-03T23:26:18.161Z,10.57
2019-05-03T23:28:49.203Z,10.51
2019-05-03T23:31:19.882Z,10.43
2019-05-03T23:33:50.633Z,10.41
2019-05-03T23:36:32.808Z,10.38
2019-05-03T23:38:54.643Z,10.35
2019-05-03T23:41:25.563Z,10.31
2019-05-03T23:43:56.166Z,10.33
2019-05-03T23:46:34.825Z,10.30
2019-05-03T23:49:05.641Z,10.25
2019-05-03T23:51:49.513Z,10.21
2019-05-03T23:54:20.431Z,10.24
2019-05-03T23:56:51.166Z,10.23
2019-05-03T23:59:21.715Z,10.22
